Athboy, South Dakota
Current Conditions -  °F | °C
As of 12:53 AM on Friday 21 Nov 2014 (Local Time) from KHEI Reporting Station
Clear Clear  
Wind Chill: 20°   Ceiling: Unl
Heat Index: 20°   Visibility: 10mi
Dew Point: 15°   Wind: 3mph
Humidity: 81%   Direction: 330°NNW
Pressure: 29.81"   Gusts: NA
Location:  45.2919°N, 102.298°W
Report Text: KHEI 210753Z AUTO 33003KT 10SM CLR M07/M09 A2981 RMK AO2 SLP132 T10671094
Loading
Personal Weather Stations






























Interactive Weather Map New forecast layout! Learn more

10-Day Weather Forecast

Advertisements
Track Severe Weather on mobile